CheckWX is a tool to help pilots better visualize weather data.  It is not intended as a substitute for an official pre-flight weather briefing.

01:53:35 UTC

DTTZ TAF
Tozeur Nefta International Airport
Tozeur, Tunisia
TAF DTTZ 182300Z 1900/2000 07012KT 6000 FEW030 TEMPO 1909/1912 4000 SA BECMG 1907/1909 08012KT

Mar-19@
00:00 UTC

Mar-19 @ 00:00 UTC

Mar-19@
07:00 UTC

Mar-19 @ 07:00 UTC

TAF DTTZ 182300Z 1900/2000 07012KT 6000 FEW030
Wind
  • 070° at 12 KTS
Cloud Levels
  • Few at 3,000' AGL

Mar-19@
07:00 UTC

Mar-19 @ 07:00 UTC

Mar-20@
00:00 UTC

Mar-20 @ 00:00 UTC

BECMG 1907/1909 08012KT

Becoming

Becoming Conditions expected by Tue, Mar 19, 2019 @ 09:00 UTC

Wind
  • 080° at 12 KTS
Cloud Levels
  • Few at 3,000' AGL

Mar-19@
09:00 UTC

Mar-19 @ 09:00 UTC

Mar-19@
12:00 UTC

Mar-19 @ 12:00 UTC

TEMPO 1909/1912 4000 SA

Temporary

Temporary Changes expected for less than half the time period

Conditions
Sand